MRSH weather

Shiroles Airport
Talamanca, Limon, Costa Rica

Public forecast

Using degrees Celsius for public forecast. Weather courtesy of forecast.io.

METAR (pilot weather report)

Report is more than 2 hours old.

Closest report is Limon International Airport, 22.9 nm (42.5 km) N. Retrieved 2019/05/24 00:00 UTC (4 hours ago):

MRLM 240000Z 23003KT 9999 DZ FEW025 BKN110 28/25 A2980

TAF (pilot weather forecast)

Forecast is more than 12 hours old.

Closest forecast is Limon International Airport, 22.9 nm (42.5 km) N. Retrieved 2019/05/23 00:42 UTC (1 day ago):

TAF MRLM 232300Z 2400/2424 11006KT 9999 SCT020 SCT120 TX29/2418Z TN23/2412Z BECMG 2400/2402 24004KT TEMPO 2400/2404 DZ BKN020 BECMG 2414/2416 09007KT